createdAt,value
2023-04-04T00:02:10.989Z,2.60
2023-04-04T00:04:37.705Z,2.40
2023-04-04T00:07:04.413Z,2.50
2023-04-04T00:09:31.062Z,2.50
2023-04-04T00:11:58.066Z,2.50
2023-04-04T00:14:24.793Z,2.40
2023-04-04T00:16:51.636Z,2.50
2023-04-04T00:19:19.007Z,2.40
2023-04-04T00:21:46.035Z,2.40
2023-04-04T00:24:12.809Z,2.40
2023-04-04T00:26:39.515Z,2.40
2023-04-04T00:29:06.790Z,2.40
2023-04-04T00:31:33.759Z,2.30
2023-04-04T00:34:00.567Z,2.30
2023-04-04T00:36:27.289Z,2.30
2023-04-04T00:38:55.572Z,2.30
2023-04-04T00:41:22.503Z,2.20
2023-04-04T00:43:49.268Z,2.20
2023-04-04T00:46:18.748Z,2.30
2023-04-04T00:48:45.901Z,2.20
2023-04-04T00:51:12.816Z,2.30
2023-04-04T00:53:39.544Z,2.20
2023-04-04T00:56:08.184Z,2.30
2023-04-04T00:58:34.906Z,2.20
2023-04-04T01:01:02.344Z,2.20
2023-04-04T01:03:29.463Z,2.10
2023-04-04T01:05:56.791Z,2.20
2023-04-04T01:08:26.273Z,2.20
2023-04-04T01:10:53.806Z,2.20
2023-04-04T01:13:21.888Z,2.10
2023-04-04T01:15:50.251Z,2.00
2023-04-04T01:18:18.952Z,1.90
2023-04-04T01:21:17.316Z,1.90
2023-04-04T01:23:49.660Z,1.90
2023-04-04T01:26:16.629Z,1.80
2023-04-04T01:28:43.902Z,1.80
2023-04-04T01:31:13.068Z,1.80
2023-04-04T01:33:48.190Z,1.80
2023-04-04T01:36:23.060Z,1.80
2023-04-04T01:38:53.566Z,1.80
2023-04-04T01:41:21.432Z,1.80
2023-04-04T01:43:54.208Z,1.70
2023-04-04T01:46:21.202Z,1.80
2023-04-04T01:48:49.230Z,1.70
2023-04-04T01:51:19.967Z,1.70
2023-04-04T01:53:46.894Z,1.70
2023-04-04T01:56:13.742Z,1.60
2023-04-04T01:58:41.060Z,1.70
2023-04-04T02:01:07.999Z,1.50
2023-04-04T02:03:34.746Z,1.50
2023-04-04T02:06:01.409Z,1.50
2023-04-04T02:08:28.716Z,1.40
2023-04-04T02:11:00.245Z,1.50
2023-04-04T02:13:27.370Z,1.50
2023-04-04T02:15:55.632Z,1.40
2023-04-04T02:18:22.708Z,1.40
2023-04-04T02:20:56.399Z,1.50
2023-04-04T02:23:23.108Z,1.40
2023-04-04T02:25:52.887Z,1.40
2023-04-04T02:28:19.635Z,1.50
2023-04-04T02:30:47.986Z,1.50
2023-04-04T02:33:14.782Z,1.40
2023-04-04T02:35:42.013Z,1.40
2023-04-04T02:38:08.990Z,1.50
2023-04-04T02:40:42.232Z,1.40
2023-04-04T02:43:09.281Z,1.40
2023-04-04T02:45:36.586Z,1.50
2023-04-04T02:48:11.865Z,1.40
2023-04-04T02:50:43.927Z,1.30
2023-04-04T02:53:13.412Z,1.30
2023-04-04T02:55:40.123Z,1.30
2023-04-04T02:58:06.973Z,1.20
2023-04-04T03:00:33.668Z,1.20
2023-04-04T03:03:00.576Z,1.00
2023-04-04T03:05:32.014Z,1.10
2023-04-04T03:07:58.980Z,1.10
2023-04-04T03:10:29.814Z,1.20
2023-04-04T03:12:57.445Z,1.00
2023-04-04T03:15:25.782Z,1.00
2023-04-04T03:17:53.028Z,1.10
2023-04-04T03:20:23.501Z,1.10
2023-04-04T03:22:50.318Z,1.10
2023-04-04T03:25:17.077Z,1.10
2023-04-04T03:27:43.820Z,1.20
2023-04-04T03:30:13.238Z,1.10
2023-04-04T03:32:39.985Z,1.00
2023-04-04T03:35:07.572Z,1.00
2023-04-04T03:37:34.396Z,1.00
2023-04-04T03:40:01.230Z,1.00
2023-04-04T03:42:34.112Z,0.80
2023-04-04T03:45:02.764Z,0.90
2023-04-04T03:47:32.869Z,0.90
2023-04-04T03:50:00.199Z,0.90
2023-04-04T03:52:28.138Z,0.90
2023-04-04T03:54:54.882Z,0.90
2023-04-04T03:57:21.574Z,0.90
2023-04-04T03:59:48.377Z,0.80
2023-04-04T04:02:15.426Z,0.70
2023-04-04T04:04:42.194Z,0.80
2023-04-04T04:07:08.937Z,0.70
2023-04-04T04:09:36.519Z,0.70
2023-04-04T04:12:03.309Z,0.60
2023-04-04T04:14:30.016Z,0.70
2023-04-04T04:16:56.944Z,0.50
2023-04-04T04:19:23.732Z,0.70
2023-04-04T04:21:50.509Z,0.70
2023-04-04T04:24:17.317Z,0.70
2023-04-04T04:26:44.070Z,0.70
2023-04-04T04:29:14.092Z,0.60
2023-04-04T04:31:41.643Z,0.60
2023-04-04T04:34:11.095Z,0.70
2023-04-04T04:36:39.876Z,0.60
2023-04-04T04:39:27.171Z,0.60
2023-04-04T04:42:08.565Z,0.50
2023-04-04T04:44:39.617Z,0.50
2023-04-04T04:47:06.681Z,0.40
2023-04-04T04:49:33.462Z,0.30
2023-04-04T04:52:04.878Z,0.30
2023-04-04T04:54:32.433Z,0.30
2023-04-04T04:57:01.253Z,0.30
2023-04-04T04:59:29.450Z,0.30
2023-04-04T05:01:56.873Z,0.30
2023-04-04T05:04:25.866Z,0.30
2023-04-04T05:07:00.590Z,0.40
2023-04-04T05:09:27.649Z,0.30
2023-04-04T05:11:54.511Z,0.30
2023-04-04T05:14:25.825Z,0.30
2023-04-04T05:16:56.864Z,0.30
2023-04-04T05:19:28.379Z,0.30
2023-04-04T05:21:57.349Z,0.40
2023-04-04T05:24:32.754Z,0.40
2023-04-04T05:27:00.760Z,0.40
2023-04-04T05:29:33.271Z,0.50
2023-04-04T05:32:02.016Z,0.40
2023-04-04T05:34:29.334Z,0.50
2023-04-04T05:36:57.583Z,0.40
2023-04-04T05:39:24.487Z,0.40
2023-04-04T05:42:01.253Z,0.40
2023-04-04T05:44:31.237Z,0.40
2023-04-04T05:46:57.984Z,0.50
2023-04-04T05:49:25.466Z,0.50
2023-04-04T05:51:56.657Z,0.30
2023-04-04T05:54:24.148Z,0.40
2023-04-04T05:56:51.866Z,0.30
2023-04-04T05:59:30.567Z,0.40
2023-04-04T06:02:01.765Z,0.40
2023-04-04T06:04:29.432Z,0.40
2023-04-04T06:06:59.224Z,0.50
2023-04-04T06:09:26.193Z,0.50
2023-04-04T06:11:52.981Z,0.50
2023-04-04T06:14:19.866Z,0.60
2023-04-04T06:16:48.099Z,0.60
2023-04-04T06:19:16.319Z,0.70
2023-04-04T06:21:43.091Z,0.70
2023-04-04T06:24:11.979Z,0.70
2023-04-04T06:26:39.200Z,0.80
2023-04-04T06:29:06.529Z,0.90
2023-04-04T06:31:36.765Z,1.00
2023-04-04T06:34:10.695Z,1.20
2023-04-04T06:36:53.774Z,1.30
2023-04-04T06:39:22.711Z,1.50
2023-04-04T06:41:51.650Z,1.70
2023-04-04T06:44:24.102Z,1.60
2023-04-04T06:46:51.481Z,1.80
2023-04-04T06:49:18.299Z,1.90
2023-04-04T06:51:44.977Z,1.80
2023-04-04T06:54:11.915Z,2.10
2023-04-04T06:56:38.738Z,2.10
2023-04-04T06:59:05.528Z,2.20
2023-04-04T07:01:35.503Z,2.00
2023-04-04T07:04:02.418Z,2.40
2023-04-04T07:06:31.344Z,2.70
2023-04-04T07:08:59.767Z,2.80
2023-04-04T07:11:29.646Z,2.70
2023-04-04T07:13:56.927Z,2.60
2023-04-04T07:16:23.808Z,2.60
2023-04-04T07:18:51.064Z,2.70
2023-04-04T07:21:18.564Z,3.00
2023-04-04T07:23:47.815Z,3.00
2023-04-04T07:26:18.320Z,2.90
2023-04-04T07:28:45.715Z,3.00
2023-04-04T07:31:14.754Z,3.10
2023-04-04T07:33:42.108Z,3.40
2023-04-04T07:36:09.949Z,3.50
2023-04-04T07:38:37.446Z,3.20
2023-04-04T07:41:04.685Z,3.60
2023-04-04T07:43:31.982Z,3.70
2023-04-04T07:45:58.809Z,3.90
2023-04-04T07:48:26.542Z,4.00
2023-04-04T07:50:53.557Z,3.90
2023-04-04T07:53:20.726Z,3.80
2023-04-04T07:55:47.621Z,4.00
2023-04-04T07:58:14.686Z,4.20
2023-04-04T08:00:41.702Z,4.50
2023-04-04T08:03:08.603Z,4.20
2023-04-04T08:05:35.444Z,4.40
2023-04-04T08:08:02.169Z,4.80
2023-04-04T08:10:29.031Z,4.70
2023-04-04T08:12:55.846Z,5.00
2023-04-04T08:15:22.550Z,5.00
2023-04-04T08:17:50.081Z,4.60
2023-04-04T08:20:16.889Z,4.10
2023-04-04T08:22:43.711Z,4.40
2023-04-04T08:25:11.227Z,4.80
2023-04-04T08:27:43.796Z,4.40
2023-04-04T08:30:11.629Z,4.70
2023-04-04T08:32:38.519Z,4.60
2023-04-04T08:35:06.283Z,4.40
2023-04-04T08:37:35.523Z,4.80
2023-04-04T08:40:04.097Z,5.20
2023-04-04T08:42:50.479Z,5.30
2023-04-04T08:45:28.655Z,5.50
2023-04-04T08:48:10.118Z,5.40
2023-04-04T08:51:08.537Z,5.30
2023-04-04T08:53:38.632Z,5.50
2023-04-04T08:56:12.358Z,5.80
2023-04-04T08:59:01.715Z,5.90
2023-04-04T09:01:29.817Z,6.10
2023-04-04T09:04:00.056Z,6.40
2023-04-04T09:06:27.682Z,6.60
2023-04-04T09:08:54.583Z,6.10
2023-04-04T09:11:21.738Z,6.10
2023-04-04T09:13:49.043Z,6.30
2023-04-04T09:16:15.772Z,6.50
2023-04-04T09:18:42.774Z,6.20
2023-04-04T09:21:13.072Z,5.80
2023-04-04T09:23:39.757Z,5.70
2023-04-04T09:26:06.852Z,6.00
2023-04-04T09:28:33.772Z,6.30
2023-04-04T09:31:05.648Z,6.20
2023-04-04T09:33:36.292Z,5.90
2023-04-04T09:36:12.731Z,6.10
2023-04-04T09:38:40.866Z,5.80
2023-04-04T09:41:09.709Z,6.20
2023-04-04T09:43:37.267Z,6.50
2023-04-04T09:46:04.261Z,6.50
2023-04-04T09:48:32.780Z,6.60
2023-04-04T09:50:59.935Z,6.60
2023-04-04T09:53:27.453Z,6.80
2023-04-04T09:55:55.016Z,6.60
2023-04-04T09:58:28.898Z,6.50
2023-04-04T10:01:00.181Z,6.70
2023-04-04T10:03:27.530Z,7.10
2023-04-04T10:06:06.800Z,7.10
2023-04-04T10:08:34.396Z,6.80
2023-04-04T10:11:11.144Z,6.60
2023-04-04T10:13:47.805Z,7.10
2023-04-04T10:16:16.224Z,7.20
2023-04-04T10:18:43.409Z,7.10
2023-04-04T10:23:41.474Z,7.50
2023-04-04T10:26:08.356Z,7.80
2023-04-04T10:28:35.341Z,7.60
2023-04-04T10:31:11.548Z,7.60
2023-04-04T10:33:44.083Z,7.80
2023-04-04T10:36:12.216Z,8.10
2023-04-04T10:38:42.625Z,8.20
2023-04-04T10:41:09.411Z,8.50
2023-04-04T10:43:36.702Z,8.50
2023-04-04T10:46:12.015Z,8.50
2023-04-04T10:48:38.844Z,8.00
2023-04-04T10:51:06.198Z,7.40
2023-04-04T10:53:33.855Z,7.30
2023-04-04T10:56:01.076Z,7.50
2023-04-04T10:58:28.573Z,8.00
2023-04-04T11:00:56.202Z,8.60
2023-04-04T11:03:23.027Z,8.70
2023-04-04T11:05:51.615Z,8.80
2023-04-04T11:08:24.206Z,9.40
2023-04-04T11:10:54.813Z,9.60
2023-04-04T11:13:39.742Z,8.80
2023-04-04T11:16:15.725Z,8.90
2023-04-04T11:18:43.158Z,8.90
2023-04-04T11:21:19.960Z,9.10
2023-04-04T11:23:50.073Z,9.90
2023-04-04T11:26:26.510Z,9.30
2023-04-04T11:28:59.517Z,10.00
2023-04-04T11:31:40.143Z,10.40
2023-04-04T11:34:11.450Z,10.60
2023-04-04T11:36:38.742Z,10.70
2023-04-04T11:39:28.292Z,10.50
2023-04-04T11:41:55.352Z,10.00
2023-04-04T11:44:25.257Z,10.20
2023-04-04T11:47:16.199Z,10.10
2023-04-04T11:49:43.475Z,10.70
2023-04-04T11:52:11.966Z,11.40
2023-04-04T11:54:39.136Z,11.30
2023-04-04T11:57:06.758Z,11.10
2023-04-04T11:59:34.692Z,11.20
2023-04-04T12:02:03.018Z,12.20
2023-04-04T12:04:29.870Z,11.80
2023-04-04T12:06:56.908Z,11.40
2023-04-04T12:09:25.418Z,11.70
2023-04-04T12:11:52.077Z,11.60
2023-04-04T12:14:23.617Z,11.80
2023-04-04T12:16:52.262Z,11.70
2023-04-04T12:19:19.022Z,11.20
2023-04-04T12:21:49.419Z,10.00
2023-04-04T12:24:16.527Z,10.00
2023-04-04T12:26:44.773Z,11.10
2023-04-04T12:29:12.173Z,11.20
2023-04-04T12:31:41.529Z,10.90
2023-04-04T12:34:15.745Z,11.40
2023-04-04T12:36:42.626Z,11.90
2023-04-04T12:39:11.962Z,12.20
2023-04-04T12:42:02.425Z,12.50
2023-04-04T12:44:35.812Z,12.50
2023-04-04T12:47:06.641Z,12.40
2023-04-04T12:49:48.521Z,13.00
2023-04-04T12:52:20.514Z,12.10
2023-04-04T12:54:50.955Z,13.30
2023-04-04T12:57:24.548Z,13.50
2023-04-04T12:59:52.357Z,13.40
2023-04-04T13:02:20.021Z,12.60
2023-04-04T13:04:47.860Z,11.10
2023-04-04T13:07:27.353Z,9.60
2023-04-04T13:10:00.623Z,9.80
2023-04-04T13:12:27.312Z,9.70
2023-04-04T13:15:01.037Z,9.20
2023-04-04T13:17:45.981Z,9.20
2023-04-04T13:20:13.508Z,9.30
2023-04-04T13:22:40.583Z,9.30
2023-04-04T13:25:08.168Z,9.20
2023-04-04T13:27:35.572Z,9.40
2023-04-04T13:30:03.460Z,8.90
2023-04-04T13:32:31.103Z,8.90
2023-04-04T13:34:57.937Z,9.00
2023-04-04T13:37:25.269Z,8.70
2023-04-04T13:39:51.948Z,8.70
2023-04-04T13:42:18.602Z,8.80
2023-04-04T13:44:45.300Z,8.80
2023-04-04T13:47:11.964Z,8.90
2023-04-04T13:49:38.614Z,9.00
2023-04-04T13:52:05.328Z,9.20
2023-04-04T13:54:32.029Z,9.40
2023-04-04T13:56:58.775Z,9.50
2023-04-04T13:59:25.524Z,9.40
2023-04-04T14:01:52.296Z,9.30
2023-04-04T14:07:06.060Z,8.90
2023-04-04T14:09:32.850Z,8.80
2023-04-04T14:11:59.534Z,8.70
2023-04-04T14:14:26.175Z,9.00
2023-04-04T14:16:52.997Z,9.20
2023-04-04T14:19:20.042Z,9.10
2023-04-04T14:21:46.932Z,9.00
2023-04-04T14:24:13.598Z,9.00
2023-04-04T14:26:40.346Z,9.00
2023-04-04T14:29:07.022Z,9.00
2023-04-04T14:31:34.836Z,9.10
2023-04-04T14:34:02.641Z,9.10
2023-04-04T14:36:29.378Z,9.20
2023-04-04T14:38:56.081Z,9.10
2023-04-04T14:41:22.985Z,9.10
2023-04-04T14:43:49.755Z,9.10
2023-04-04T14:46:18.432Z,9.00
2023-04-04T14:48:45.278Z,9.10
2023-04-04T14:51:12.009Z,9.10
2023-04-04T14:53:38.680Z,9.10
2023-04-04T14:56:05.538Z,9.00
2023-04-04T14:58:32.320Z,8.70
2023-04-04T15:01:00.270Z,8.70
2023-04-04T15:03:27.118Z,8.80
2023-04-04T15:05:53.868Z,8.80
2023-04-04T15:08:20.641Z,8.80
2023-04-04T15:10:47.347Z,8.90
2023-04-04T15:13:14.063Z,8.90
2023-04-04T15:15:41.298Z,8.90
2023-04-04T15:18:08.284Z,8.90
2023-04-04T15:20:39.731Z,8.90
2023-04-04T15:23:07.008Z,9.00
2023-04-04T15:25:33.860Z,9.00
2023-04-04T15:28:01.141Z,8.90
2023-04-04T15:30:28.134Z,8.90
2023-04-04T15:32:56.338Z,8.80
2023-04-04T15:35:23.329Z,8.80
2023-04-04T15:37:50.112Z,8.80
2023-04-04T15:40:17.514Z,8.80
2023-04-04T15:42:44.629Z,8.70
2023-04-04T15:45:12.974Z,8.80
2023-04-04T15:47:39.843Z,8.80
2023-04-04T15:50:11.567Z,8.70
2023-04-04T15:52:38.511Z,8.70
2023-04-04T15:55:07.753Z,8.70
2023-04-04T15:57:34.545Z,8.80
2023-04-04T16:00:01.208Z,8.60
2023-04-04T16:02:34.473Z,8.70
2023-04-04T16:05:01.523Z,8.70
2023-04-04T16:07:28.196Z,8.70
2023-04-04T16:09:55.205Z,8.70
2023-04-04T16:12:22.387Z,8.70
2023-04-04T16:14:49.069Z,8.70
2023-04-04T16:17:16.078Z,8.60
2023-04-04T16:19:42.729Z,8.60
2023-04-04T16:22:09.650Z,8.60
2023-04-04T16:24:36.477Z,8.60
2023-04-04T16:27:03.254Z,8.60
2023-04-04T16:29:30.972Z,8.60
2023-04-04T16:31:57.871Z,8.50
2023-04-04T16:34:24.601Z,8.60
2023-04-04T16:36:51.375Z,8.60
2023-04-04T16:39:18.084Z,8.60
2023-04-04T16:41:44.865Z,8.60
2023-04-04T16:44:12.230Z,8.50
2023-04-04T16:46:39.044Z,8.50
2023-04-04T16:49:05.771Z,8.50
2023-04-04T16:51:32.494Z,8.50
2023-04-04T16:53:59.216Z,8.50
2023-04-04T16:56:26.018Z,8.50
2023-04-04T16:58:52.729Z,8.40
2023-04-04T17:01:22.548Z,8.30
2023-04-04T17:03:49.542Z,8.40
2023-04-04T17:06:20.009Z,8.40
2023-04-04T17:08:46.872Z,8.30
2023-04-04T17:11:15.083Z,8.30
2023-04-04T17:13:42.328Z,8.30
2023-04-04T17:16:09.553Z,8.20
2023-04-04T17:18:36.660Z,8.20
2023-04-04T17:21:03.458Z,8.20
2023-04-04T17:23:30.573Z,8.20
2023-04-04T17:26:04.801Z,8.20
2023-04-04T17:28:31.508Z,8.10
2023-04-04T17:30:59.009Z,8.10
2023-04-04T17:33:27.298Z,8.10
2023-04-04T17:35:55.616Z,8.10
2023-04-04T17:38:22.430Z,8.10
2023-04-04T17:40:49.665Z,8.00
2023-04-04T17:43:16.535Z,8.00
2023-04-04T17:45:46.277Z,8.00
2023-04-04T17:48:13.363Z,7.90
2023-04-04T17:50:40.444Z,7.90
2023-04-04T17:53:07.355Z,7.80
2023-04-04T17:55:34.301Z,7.80
2023-04-04T17:58:05.320Z,7.70
2023-04-04T18:00:32.914Z,7.70
2023-04-04T18:02:59.681Z,7.70
2023-04-04T18:05:27.097Z,7.70
2023-04-04T18:07:53.909Z,7.70
2023-04-04T18:10:21.012Z,7.60
2023-04-04T18:12:47.819Z,7.60
2023-04-04T18:15:14.555Z,7.60
2023-04-04T18:17:42.143Z,7.50
2023-04-04T18:20:09.482Z,7.50
2023-04-04T18:22:40.051Z,7.50
2023-04-04T18:25:07.337Z,7.40
2023-04-04T18:27:44.145Z,7.40
2023-04-04T18:30:11.371Z,7.40
2023-04-04T18:32:38.163Z,7.30
2023-04-04T18:35:05.309Z,7.20
2023-04-04T18:37:32.248Z,7.10
2023-04-04T18:39:58.965Z,7.10
2023-04-04T18:42:26.052Z,7.10
2023-04-04T18:44:57.056Z,7.10
2023-04-04T18:47:24.114Z,7.00
2023-04-04T18:49:50.883Z,7.00
2023-04-04T18:52:21.321Z,7.00
2023-04-04T18:54:48.086Z,7.00
2023-04-04T18:57:15.309Z,6.90
2023-04-04T18:59:49.334Z,6.90
2023-04-04T19:02:18.140Z,6.90
2023-04-04T19:04:44.873Z,6.90
2023-04-04T19:07:11.793Z,6.80
2023-04-04T19:09:38.805Z,6.80
2023-04-04T19:12:05.867Z,6.60
2023-04-04T19:14:32.585Z,6.60
2023-04-04T19:16:59.960Z,6.60
2023-04-04T19:19:28.621Z,6.60
2023-04-04T19:21:56.078Z,6.50
2023-04-04T19:24:51.870Z,6.40
2023-04-04T19:31:57.808Z,6.50
2023-04-04T19:34:24.881Z,6.40
2023-04-04T19:36:55.736Z,6.30
2023-04-04T19:43:20.296Z,6.30
2023-04-04T19:45:48.984Z,6.30
2023-04-04T19:48:45.216Z,6.20
2023-04-04T19:51:18.299Z,6.20
2023-04-04T19:53:46.525Z,6.10
2023-04-04T19:56:14.572Z,6.00
2023-04-04T19:58:42.194Z,5.70
2023-04-04T20:01:09.938Z,5.50
2023-04-04T20:03:40.854Z,5.40
2023-04-04T20:06:11.601Z,5.20
2023-04-04T20:08:47.752Z,5.20
2023-04-04T20:11:15.912Z,5.10
2023-04-04T20:13:42.963Z,5.10
2023-04-04T20:16:17.103Z,5.00
2023-04-04T20:18:45.288Z,4.80
2023-04-04T20:21:22.575Z,4.80
2023-04-04T20:24:03.245Z,4.70
2023-04-04T20:26:36.330Z,4.60
2023-04-04T20:29:11.739Z,4.60
2023-04-04T20:31:49.852Z,4.50
2023-04-04T20:34:39.233Z,4.40
2023-04-04T20:37:10.804Z,4.30
2023-04-04T20:39:41.025Z,4.20
2023-04-04T20:42:16.633Z,4.10
2023-04-04T20:44:43.682Z,4.00
2023-04-04T20:47:49.737Z,3.90
2023-04-04T20:50:20.458Z,3.90
2023-04-04T20:52:56.195Z,3.90
2023-04-04T20:55:25.320Z,3.90
2023-04-04T20:57:54.290Z,3.90
2023-04-04T21:00:33.792Z,3.70
2023-04-04T21:03:02.642Z,3.70
2023-04-04T21:05:34.723Z,3.90
2023-04-04T21:08:01.867Z,3.90
2023-04-04T21:10:28.768Z,3.90
2023-04-04T21:12:59.304Z,3.80
2023-04-04T21:15:31.162Z,3.80
2023-04-04T21:18:00.149Z,3.80
2023-04-04T21:20:47.887Z,3.70
2023-04-04T21:23:26.889Z,3.70
2023-04-04T21:25:57.160Z,3.70
2023-04-04T21:28:25.151Z,3.50
2023-04-04T21:30:52.167Z,3.40
2023-04-04T21:33:19.221Z,3.30
2023-04-04T21:35:47.994Z,3.30
2023-04-04T21:38:32.069Z,3.40
2023-04-04T21:41:00.212Z,3.40
2023-04-04T21:43:27.998Z,3.40
2023-04-04T21:45:56.133Z,3.30
2023-04-04T21:48:25.661Z,3.30
2023-04-04T21:50:53.423Z,3.30
2023-04-04T21:53:22.627Z,3.30
2023-04-04T21:55:49.696Z,3.20
2023-04-04T21:58:16.912Z,3.20
2023-04-04T22:00:44.105Z,3.20
2023-04-04T22:03:10.797Z,3.20
2023-04-04T22:05:39.380Z,3.10
2023-04-04T22:08:07.289Z,3.00
2023-04-04T22:10:34.267Z,2.90
2023-04-04T22:13:01.901Z,2.90
2023-04-04T22:15:29.470Z,2.90
2023-04-04T22:18:03.726Z,2.90
2023-04-04T22:20:34.175Z,3.00
2023-04-04T22:23:05.148Z,3.00
2023-04-04T22:25:33.761Z,2.90
2023-04-04T22:28:03.241Z,2.90
2023-04-04T22:30:31.755Z,3.00
2023-04-04T22:33:03.616Z,3.00
2023-04-04T22:35:31.950Z,3.00
2023-04-04T22:38:01.180Z,3.10
2023-04-04T22:40:28.546Z,3.10
2023-04-04T22:42:56.168Z,2.90
2023-04-04T22:45:23.681Z,2.80
2023-04-04T22:47:50.727Z,2.70
2023-04-04T22:50:18.421Z,2.60
2023-04-04T22:52:49.307Z,2.60
2023-04-04T22:55:18.532Z,2.50
2023-04-04T22:57:45.583Z,2.60
2023-04-04T23:00:14.476Z,2.70
2023-04-04T23:02:42.368Z,2.80
2023-04-04T23:05:09.603Z,2.80
2023-04-04T23:07:36.713Z,2.90
2023-04-04T23:10:04.838Z,2.80
2023-04-04T23:12:31.891Z,2.70
2023-04-04T23:15:01.361Z,2.60
2023-04-04T23:17:29.015Z,2.60
2023-04-04T23:19:56.316Z,2.50
2023-04-04T23:22:24.199Z,2.40
2023-04-04T23:24:51.421Z,2.30
2023-04-04T23:27:19.247Z,2.20
2023-04-04T23:29:47.451Z,2.20
2023-04-04T23:32:14.130Z,2.20
2023-04-04T23:34:40.807Z,2.10
2023-04-04T23:37:08.527Z,2.10
2023-04-04T23:39:35.769Z,2.10
2023-04-04T23:42:03.384Z,2.20
2023-04-04T23:44:30.421Z,2.10
2023-04-04T23:46:57.585Z,2.00
2023-04-04T23:49:24.632Z,2.00
2023-04-04T23:51:51.745Z,1.90
2023-04-04T23:54:18.952Z,2.00
2023-04-04T23:56:45.632Z,2.00
2023-04-04T23:59:12.920Z,2.10
